»·PEaware :: N716CS KSMX-KBFL

N716CS :: KSMX-KBFL

FLIGHT INFORMATION

Flight Status: Arrived
Operator: Privately registered:
United States
More flights under this callsign
Pilot: Chris C. (22725)
Aircraft: CESSNA 172 SKYHAWK
(C172)
More flights by this aircraft type
Origin: KSMX Santa Maria Pub/Capt Hancock
United States
Destination: KBFL Meadows
United States
More flights between these airports :: More routes between these airports
Route:
File this flight plan on PilotEdge
Remarks: CAT5
Altitude:
(Current/Filed)
5,500ft
Speed:
(Current/Filed)
115kts
Departed: 31-Jan-19 04:42 PM
Arrived: 31-Jan-19 05:31 PM
Distance/Time
Traveled:
76nm/0:49
Distance/Time
To Go:
Arrived

Flight Plot

Page will automatically refresh every two minutes.


Map Options




Map Legend


Flown Route
Filed Route
Departure Airport
Arrival Airport
Navaid (VOR, NDB)
Fix

Horizontal Profiles

Position Reports

Time Latitude Longitude Heading Altitude Ground
Speed
31-Jan-19 16:38 34.895253 -120.444967 135 264ft 2kts
31-Jan-19 16:39 34.893369 -120.445210 179 264ft 0kts
31-Jan-19 16:40 34.892822 -120.445894 303 264ft 4kts
31-Jan-19 16:41 34.903754 -120.458915 311 595ft 79kts
31-Jan-19 16:42 34.923160 -120.461663 58 1215ft 90kts
31-Jan-19 16:43 34.932640 -120.431740 61 1759ft 94kts
31-Jan-19 16:44 34.941483 -120.401346 77 2268ft 96kts
31-Jan-19 16:45 34.947779 -120.369981 71 2808ft 94kts
31-Jan-19 16:46 34.954414 -120.338492 72 3272ft 97kts
31-Jan-19 16:47 34.961682 -120.307340 70 3762ft 95kts
31-Jan-19 16:48 34.968777 -120.277130 70 4287ft 88kts
31-Jan-19 16:49 34.973119 -120.246993 81 4759ft 90kts
31-Jan-19 16:50 34.976670 -120.216630 71 5183ft 92kts
31-Jan-19 16:51 34.985401 -120.186546 58 5534ft 97kts
31-Jan-19 16:52 35.001464 -120.156053 54 5578ft 115kts
31-Jan-19 16:53 35.020508 -120.123342 51 5534ft 118kts
31-Jan-19 16:54 35.042932 -120.094756 49 5483ft 108kts
31-Jan-19 16:55 35.060057 -120.064009 55 5330ft 99kts
31-Jan-19 16:56 35.071778 -120.034641 62 5529ft 110kts
31-Jan-19 16:57 35.084659 -119.999487 65 5442ft 118kts
31-Jan-19 16:58 35.096663 -119.963283 66 5491ft 108kts
31-Jan-19 16:59 35.104881 -119.928040 81 5481ft 115kts
31-Jan-19 17:00 35.112655 -119.889316 68 4920ft 113kts
31-Jan-19 17:01 35.123741 -119.853527 68 4613ft 112kts
31-Jan-19 17:02 35.132925 -119.817829 68 4466ft 108kts
31-Jan-19 17:03 35.148519 -119.786183 53 4554ft 110kts
31-Jan-19 17:04 35.169959 -119.758384 45 4628ft 117kts
31-Jan-19 17:05 35.192070 -119.728263 52 4551ft 120kts
31-Jan-19 17:06 35.212781 -119.695991 55 4430ft 118kts
31-Jan-19 17:07 35.230905 -119.663072 57 4400ft 114kts
31-Jan-19 17:08 35.248783 -119.630521 57 4515ft 114kts
31-Jan-19 17:09 35.265268 -119.603321 49 4604ft 118kts
31-Jan-19 17:10 35.283678 -119.568604 59 4520ft 122kts
31-Jan-19 17:11 35.299717 -119.531381 57 4343ft 126kts
31-Jan-19 17:12 35.314435 -119.495566 66 4382ft 121kts
31-Jan-19 17:13 35.323841 -119.456724 74 4394ft 115kts
31-Jan-19 17:14 35.331602 -119.418165 73 4462ft 116kts
31-Jan-19 17:15 35.337437 -119.379844 82 4586ft 117kts
31-Jan-19 17:16 35.341572 -119.341011 77 4775ft 111kts
31-Jan-19 17:17 35.348188 -119.303647 78 4884ft 117kts
31-Jan-19 17:18 35.355729 -119.264847 70 4798ft 117kts
31-Jan-19 17:19 35.365542 -119.227302 74 4454ft 109kts
31-Jan-19 17:20 35.370580 -119.192622 84 4162ft 98kts
31-Jan-19 17:21 35.370038 -119.158291 92 3829ft 100kts
31-Jan-19 17:22 35.375818 -119.127613 22 3486ft 95kts
31-Jan-19 17:23 35.397654 -119.114221 26 2509ft 86kts
31-Jan-19 17:24 35.416958 -119.097613 40 1595ft 78kts
31-Jan-19 17:25 35.419203 -119.072760 137 1469ft 95kts
31-Jan-19 17:26 35.399867 -119.051521 136 1479ft 83kts
31-Jan-19 17:27 35.404659 -119.031331 32 1104ft 78kts
31-Jan-19 17:28 35.422253 -119.042129 316 814ft 78kts
31-Jan-19 17:29 35.435769 -119.058541 316 496ft 45kts
31-Jan-19 17:30 35.438224 -119.059958 71 496ft 0kts
31-Jan-19 17:31 35.438224 -119.059958 71 496ft 0kts
31-Jan-19 17:32 35.436554 -119.057223 135 496ft 20kts
31-Jan-19 17:33 35.435545 -119.053669 13 496ft 8kts
31-Jan-19 17:34 35.435651 -119.053460 119 496ft 0kts
31-Jan-19 17:35 35.435651 -119.053460 119 496ft 0kts

Navigation Log

Ident Type
Flight plan parsing failed, navigation log unavailable